createdAt,value
2023-04-21T00:00:16.517Z,8.36
2023-04-21T00:01:17.072Z,8.35
2023-04-21T00:02:16.992Z,8.33
2023-04-21T00:03:16.791Z,8.33
2023-04-21T00:04:16.888Z,8.32
2023-04-21T00:05:16.817Z,8.28
2023-04-21T00:06:16.635Z,8.20
2023-04-21T00:07:17.248Z,8.25
2023-04-21T00:08:16.792Z,8.25
2023-04-21T00:09:16.454Z,8.25
2023-04-21T00:10:17.196Z,8.25
2023-04-21T00:11:16.719Z,8.23
2023-04-21T00:12:16.514Z,8.16
2023-04-21T00:13:17.093Z,8.15
2023-04-21T00:14:16.639Z,8.18
2023-04-21T00:15:17.220Z,8.22
2023-04-21T00:16:16.840Z,8.20
2023-04-21T00:17:16.603Z,8.20
2023-04-21T00:18:17.166Z,8.19
2023-04-21T00:19:16.888Z,8.19
2023-04-21T00:20:16.841Z,8.18
2023-04-21T00:21:16.422Z,8.16
2023-04-21T00:22:16.400Z,8.19
2023-04-21T00:23:16.956Z,8.16
2023-04-21T00:24:16.509Z,8.15
2023-04-21T00:25:17.060Z,8.16
2023-04-21T00:26:16.647Z,8.15
2023-04-21T00:27:17.275Z,8.15
2023-04-21T00:28:16.883Z,8.13
2023-04-21T00:29:16.614Z,8.15
2023-04-21T00:30:16.601Z,8.16
2023-04-21T00:31:17.158Z,8.12
2023-04-21T00:32:17.178Z,8.06
2023-04-21T00:33:16.903Z,8.05
2023-04-21T00:34:16.444Z,8.06
2023-04-21T00:35:17.022Z,8.02
2023-04-21T00:36:16.584Z,8.02
2023-04-21T00:37:17.188Z,8.01
2023-04-21T00:38:16.771Z,7.98
2023-04-21T00:39:16.311Z,8.00
2023-04-21T00:40:17.180Z,7.95
2023-04-21T00:41:16.752Z,7.94
2023-04-21T00:42:16.900Z,7.97
2023-04-21T00:43:16.533Z,7.92
2023-04-21T00:44:17.157Z,7.88
2023-04-21T00:45:16.718Z,7.85
2023-04-21T00:46:17.270Z,7.80
2023-04-21T00:47:16.928Z,7.74
2023-04-21T00:48:16.468Z,7.70
2023-04-21T00:49:17.253Z,7.67
2023-04-21T00:50:16.392Z,7.67
2023-04-21T00:51:16.934Z,7.63
2023-04-21T00:52:17.024Z,7.57
2023-04-21T00:53:16.580Z,7.57
2023-04-21T00:54:17.125Z,7.45
2023-04-21T00:55:16.729Z,7.40
2023-04-21T00:56:17.305Z,7.40
2023-04-21T00:57:16.862Z,7.38
2023-04-21T00:58:16.399Z,7.36
2023-04-21T00:59:17.034Z,7.35
2023-04-21T01:00:17.028Z,7.30
2023-04-21T01:01:16.597Z,7.33
2023-04-21T01:02:17.431Z,7.30
2023-04-21T01:03:17.384Z,7.30
2023-04-21T01:04:16.451Z,7.29
2023-04-21T01:05:17.065Z,7.29
2023-04-21T01:06:16.669Z,7.28
2023-04-21T01:07:17.207Z,7.26
2023-04-21T01:08:16.768Z,7.26
2023-04-21T01:09:16.465Z,7.29
2023-04-21T01:10:17.239Z,7.30
2023-04-21T01:11:16.795Z,7.29
2023-04-21T01:12:16.647Z,7.30
2023-04-21T01:13:17.221Z,7.30
2023-04-21T01:14:16.782Z,7.30
2023-04-21T01:15:16.327Z,7.30
2023-04-21T01:16:16.916Z,7.30
2023-04-21T01:17:16.527Z,7.36
2023-04-21T01:18:17.080Z,7.36
2023-04-21T01:19:16.779Z,7.33
2023-04-21T01:20:16.880Z,7.33
2023-04-21T01:21:16.423Z,7.35
2023-04-21T01:22:16.725Z,7.35
2023-04-21T01:23:17.281Z,7.35
2023-04-21T01:24:16.832Z,7.33
2023-04-21T01:25:16.426Z,7.30
2023-04-21T01:26:16.964Z,7.30
2023-04-21T01:27:16.559Z,7.26
2023-04-21T01:28:17.133Z,7.26
2023-04-21T01:29:16.913Z,7.29
2023-04-21T01:30:17.042Z,7.28
2023-04-21T01:31:16.579Z,7.26
2023-04-21T01:32:16.699Z,7.25
2023-04-21T01:33:16.509Z,7.26
2023-04-21T01:34:17.212Z,7.23
2023-04-21T01:35:16.761Z,7.23
2023-04-21T01:36:16.338Z,7.22
2023-04-21T01:37:16.908Z,7.21
2023-04-21T01:38:18.843Z,7.21
2023-04-21T01:39:17.403Z,7.21
2023-04-21T01:40:16.500Z,7.19
2023-04-21T01:41:17.119Z,7.21
2023-04-21T01:42:17.003Z,7.18
2023-04-21T01:43:16.586Z,7.16
2023-04-21T01:44:17.151Z,7.16
2023-04-21T01:45:16.703Z,7.15
2023-04-21T01:46:17.285Z,7.12
2023-04-21T01:47:16.877Z,7.11
2023-04-21T01:48:16.473Z,7.10
2023-04-21T01:49:17.282Z,7.10
2023-04-21T01:50:16.321Z,7.08
2023-04-21T01:51:16.878Z,7.07
2023-04-21T01:52:16.818Z,7.07
2023-04-21T01:53:16.428Z,7.05
2023-04-21T01:54:17.006Z,7.05
2023-04-21T01:55:16.542Z,7.05
2023-04-21T01:56:17.130Z,7.05
2023-04-21T01:57:16.749Z,7.01
2023-04-21T01:58:16.466Z,7.04
2023-04-21T01:59:17.154Z,7.08
2023-04-21T02:00:17.221Z,7.04
2023-04-21T02:01:16.845Z,7.01
2023-04-21T02:02:17.382Z,6.97
2023-04-21T02:03:17.255Z,7.00
2023-04-21T02:04:17.362Z,6.98
2023-04-21T02:05:17.225Z,6.98
2023-04-21T02:06:16.762Z,7.00
2023-04-21T02:07:17.319Z,6.97
2023-04-21T02:08:16.860Z,6.95
2023-04-21T02:09:16.566Z,6.95
2023-04-21T02:10:16.430Z,6.93
2023-04-21T02:11:16.986Z,6.94
2023-04-21T02:12:17.290Z,6.94
2023-04-21T02:13:16.852Z,6.98
2023-04-21T02:14:16.445Z,6.95
2023-04-21T02:15:17.030Z,6.94
2023-04-21T02:16:16.626Z,6.95
2023-04-21T02:17:17.200Z,6.94
2023-04-21T02:18:16.814Z,6.97
2023-04-21T02:19:16.557Z,6.95
2023-04-21T02:20:16.713Z,6.95
2023-04-21T02:21:17.265Z,6.84
2023-04-21T02:22:17.277Z,6.83
2023-04-21T02:23:16.802Z,6.80
2023-04-21T02:24:16.342Z,6.82
2023-04-21T02:25:16.932Z,6.80
2023-04-21T02:26:16.478Z,6.77
2023-04-21T02:27:17.022Z,6.72
2023-04-21T02:28:16.564Z,6.72
2023-04-21T02:29:17.250Z,6.66
2023-04-21T02:30:17.313Z,6.55
2023-04-21T02:31:17.173Z,6.56
2023-04-21T02:32:24.751Z,6.60
2023-04-21T02:33:16.725Z,6.63
2023-04-21T02:34:16.378Z,6.56
2023-04-21T02:35:16.927Z,6.56
2023-04-21T02:36:16.510Z,6.52
2023-04-21T02:37:17.049Z,6.48
2023-04-21T02:38:16.622Z,6.53
2023-04-21T02:39:17.379Z,6.55
2023-04-21T02:40:16.456Z,6.50
2023-04-21T02:41:17.065Z,6.48
2023-04-21T02:42:16.645Z,6.43
2023-04-21T02:43:17.192Z,6.40
2023-04-21T02:44:16.723Z,6.36
2023-04-21T02:45:17.280Z,6.33
2023-04-21T02:46:16.844Z,6.40
2023-04-21T02:47:16.437Z,6.39
2023-04-21T02:48:17.045Z,6.31
2023-04-21T02:49:16.709Z,6.28
2023-04-21T02:50:16.891Z,6.26
2023-04-21T02:51:16.454Z,6.25
2023-04-21T02:52:16.771Z,6.25
2023-04-21T02:53:16.308Z,6.26
2023-04-21T02:54:16.850Z,6.25
2023-04-21T02:55:16.398Z,6.24
2023-04-21T02:56:16.976Z,6.21
2023-04-21T02:57:16.542Z,6.29
2023-04-21T02:58:17.073Z,6.29
2023-04-21T02:59:16.808Z,6.25
2023-04-21T03:00:16.550Z,6.15
2023-04-21T03:01:17.169Z,6.11
2023-04-21T03:02:16.520Z,6.10
2023-04-21T03:03:17.329Z,6.10
2023-04-21T03:04:17.284Z,6.14
2023-04-21T03:05:17.146Z,6.11
2023-04-21T03:06:16.685Z,6.11
2023-04-21T03:07:17.282Z,6.11
2023-04-21T03:08:16.868Z,6.14
2023-04-21T03:09:16.467Z,6.11
2023-04-21T03:10:17.168Z,6.10
2023-04-21T03:11:16.741Z,6.11
2023-04-21T03:12:16.578Z,6.11
2023-04-21T03:13:17.139Z,6.11
2023-04-21T03:14:16.689Z,6.10
2023-04-21T03:15:17.237Z,6.14
2023-04-21T03:16:16.820Z,6.15
2023-04-21T03:17:16.428Z,6.11
2023-04-21T03:18:16.991Z,6.08
2023-04-21T03:19:16.690Z,6.10
2023-04-21T03:20:16.532Z,6.11
2023-04-21T03:21:17.060Z,6.04
2023-04-21T03:22:16.576Z,6.08
2023-04-21T03:23:17.128Z,6.04
2023-04-21T03:24:16.677Z,5.94
2023-04-21T03:25:17.229Z,5.93
2023-04-21T03:26:16.806Z,5.77
2023-04-21T03:27:16.406Z,5.76
2023-04-21T03:28:16.996Z,5.76
2023-04-21T03:29:16.623Z,5.77
2023-04-21T03:30:16.638Z,5.79
2023-04-21T03:31:17.185Z,5.80
2023-04-21T03:32:16.547Z,5.77
2023-04-21T03:33:17.246Z,5.82
2023-04-21T03:34:16.810Z,5.77
2023-04-21T03:35:16.376Z,5.79
2023-04-21T03:36:16.928Z,5.89
2023-04-21T03:37:16.469Z,5.85
2023-04-21T03:38:16.998Z,5.80
2023-04-21T03:39:19.944Z,5.75
2023-04-21T03:40:17.215Z,5.75
2023-04-21T03:41:16.740Z,5.79
2023-04-21T03:42:16.996Z,5.80
2023-04-21T03:43:16.576Z,5.76
2023-04-21T03:44:17.125Z,5.76
2023-04-21T03:45:16.715Z,5.76
2023-04-21T03:46:17.285Z,5.75
2023-04-21T03:47:16.919Z,5.73
2023-04-21T03:48:16.552Z,5.72
2023-04-21T03:49:17.136Z,5.72
2023-04-21T03:50:16.726Z,5.70
2023-04-21T03:51:17.302Z,5.70
2023-04-21T03:52:16.571Z,5.69
2023-04-21T03:53:17.119Z,5.69
2023-04-21T03:54:16.670Z,5.66
2023-04-21T03:55:17.255Z,5.65
2023-04-21T03:56:16.809Z,5.62
2023-04-21T03:57:16.346Z,5.61
2023-04-21T03:58:17.086Z,5.61
2023-04-21T03:59:16.721Z,5.62
2023-04-21T04:00:16.824Z,5.63
2023-04-21T04:01:16.361Z,5.62
2023-04-21T04:02:16.383Z,5.58
2023-04-21T04:03:17.368Z,5.55
2023-04-21T04:04:16.988Z,5.51
2023-04-21T04:05:17.177Z,5.51
2023-04-21T04:06:16.969Z,5.51
2023-04-21T04:07:16.513Z,5.52
2023-04-21T04:08:17.040Z,5.51
2023-04-21T04:09:16.652Z,5.53
2023-04-21T04:10:16.555Z,5.53
2023-04-21T04:11:17.121Z,5.58
2023-04-21T04:12:16.427Z,5.53
2023-04-21T04:13:17.024Z,5.52
2023-04-21T04:14:16.600Z,5.49
2023-04-21T04:15:17.164Z,5.46
2023-04-21T04:16:16.753Z,5.65
2023-04-21T04:17:16.382Z,5.58
2023-04-21T04:18:16.908Z,5.51
2023-04-21T04:19:16.449Z,5.51
2023-04-21T04:20:16.976Z,5.49
2023-04-21T04:21:16.519Z,5.52
2023-04-21T04:22:16.452Z,5.48
2023-04-21T04:23:17.063Z,5.42
2023-04-21T04:24:16.626Z,5.41
2023-04-21T04:25:17.186Z,5.38
2023-04-21T04:26:16.751Z,5.39
2023-04-21T04:27:17.298Z,5.32
2023-04-21T04:28:16.812Z,5.28
2023-04-21T04:29:16.413Z,5.23
2023-04-21T04:30:17.137Z,5.27
2023-04-21T04:31:16.744Z,5.23
2023-04-21T04:32:16.560Z,5.24
2023-04-21T04:33:17.145Z,5.25
2023-04-21T04:34:16.691Z,5.28
2023-04-21T04:35:17.266Z,5.28
2023-04-21T04:36:16.818Z,5.34
2023-04-21T04:37:16.373Z,5.32
2023-04-21T04:38:16.926Z,5.30
2023-04-21T04:39:16.542Z,5.37
2023-04-21T04:40:17.129Z,5.35
2023-04-21T04:41:16.682Z,5.38
2023-04-21T04:42:17.009Z,5.42
2023-04-21T04:43:16.572Z,5.46
2023-04-21T04:44:17.154Z,5.38
2023-04-21T04:45:16.929Z,5.43
2023-04-21T04:46:16.493Z,5.45
2023-04-21T04:47:17.115Z,5.48
2023-04-21T04:48:16.777Z,5.46
2023-04-21T04:49:16.342Z,5.45
2023-04-21T04:50:16.902Z,5.41
2023-04-21T04:51:16.452Z,5.41
2023-04-21T04:52:16.384Z,5.34
2023-04-21T04:53:16.956Z,5.31
2023-04-21T04:54:16.528Z,5.30
2023-04-21T04:55:16.329Z,5.27
2023-04-21T04:56:16.880Z,5.20
2023-04-21T04:57:16.468Z,5.24
2023-04-21T04:58:17.030Z,5.28
2023-04-21T04:59:16.595Z,5.25
2023-04-21T05:00:17.168Z,5.31
2023-04-21T05:01:16.743Z,5.32
2023-04-21T05:02:16.986Z,5.35
2023-04-21T05:03:16.873Z,5.38
2023-04-21T05:04:16.790Z,5.38
2023-04-21T05:05:17.249Z,5.38
2023-04-21T05:06:16.971Z,5.32
2023-04-21T05:07:16.550Z,5.32
2023-04-21T05:08:17.953Z,5.37
2023-04-21T05:09:16.765Z,5.35
2023-04-21T05:10:16.363Z,5.34
2023-04-21T05:11:16.943Z,5.37
2023-04-21T05:12:16.595Z,5.38
2023-04-21T05:13:17.193Z,5.39
2023-04-21T05:14:16.787Z,5.39
2023-04-21T05:15:16.529Z,5.39
2023-04-21T05:16:17.180Z,5.42
2023-04-21T05:17:16.800Z,5.48
2023-04-21T05:18:16.353Z,5.51
2023-04-21T05:19:18.619Z,5.55
2023-04-21T05:20:16.328Z,5.58
2023-04-21T05:21:16.884Z,5.68
2023-04-21T05:22:16.941Z,5.69
2023-04-21T05:23:16.510Z,5.70
2023-04-21T05:24:17.257Z,5.75
2023-04-21T05:25:16.396Z,5.73
2023-04-21T05:26:16.932Z,5.83
2023-04-21T05:27:16.505Z,5.82
2023-04-21T05:28:17.098Z,5.83
2023-04-21T05:29:16.643Z,5.86
2023-04-21T05:30:17.212Z,5.83
2023-04-21T05:31:16.768Z,5.83
2023-04-21T05:32:17.291Z,5.87
2023-04-21T05:33:16.923Z,5.90
2023-04-21T05:34:16.588Z,5.97
2023-04-21T05:35:17.312Z,6.05
2023-04-21T05:36:16.878Z,6.18
2023-04-21T05:37:16.420Z,6.32
2023-04-21T05:38:16.979Z,6.42
2023-04-21T05:39:16.538Z,6.56
2023-04-21T05:40:17.079Z,6.73
2023-04-21T05:41:16.611Z,6.80
2023-04-21T05:42:16.736Z,6.74
2023-04-21T05:43:17.296Z,6.84
2023-04-21T05:44:16.892Z,6.80
2023-04-21T05:45:16.897Z,6.82
2023-04-21T05:46:16.487Z,6.91
2023-04-21T05:47:17.136Z,6.95
2023-04-21T05:48:16.719Z,7.01
2023-04-21T05:49:16.355Z,7.08
2023-04-21T05:50:16.970Z,7.15
2023-04-21T05:51:16.533Z,7.14
2023-04-21T05:52:16.468Z,7.22
2023-04-21T05:53:17.019Z,7.45
2023-04-21T05:54:16.596Z,7.64
2023-04-21T05:55:16.472Z,7.80
2023-04-21T05:56:17.029Z,8.15
2023-04-21T05:57:16.573Z,8.39
2023-04-21T05:58:17.141Z,8.41
2023-04-21T05:59:16.710Z,8.32
2023-04-21T06:00:17.275Z,8.32
2023-04-21T06:01:16.826Z,8.41
2023-04-21T06:02:16.691Z,8.51
2023-04-21T06:03:16.549Z,8.78
2023-04-21T06:04:16.554Z,9.08
2023-04-21T06:05:16.755Z,9.20
2023-04-21T06:06:16.409Z,9.34
2023-04-21T06:07:18.647Z,9.57
2023-04-21T06:08:16.393Z,9.72
2023-04-21T06:09:16.952Z,10.02
2023-04-21T06:10:16.570Z,9.96
2023-04-21T06:11:17.176Z,10.12
2023-04-21T06:12:17.169Z,10.38
2023-04-21T06:13:16.749Z,10.51
2023-04-21T06:14:17.427Z,10.76
2023-04-21T06:15:16.394Z,10.85
2023-04-21T06:16:17.010Z,11.18
2023-04-21T06:17:16.624Z,11.66
2023-04-21T06:18:17.199Z,11.75
2023-04-21T06:19:16.741Z,11.90
2023-04-21T06:20:17.305Z,11.41
2023-04-21T06:21:16.877Z,11.21
2023-04-21T06:22:16.689Z,11.78
2023-04-21T06:23:17.253Z,12.00
2023-04-21T06:24:16.892Z,12.31
2023-04-21T06:25:16.805Z,12.84
2023-04-21T06:26:16.362Z,12.92
2023-04-21T06:27:17.093Z,12.49
2023-04-21T06:28:16.635Z,12.66
2023-04-21T06:29:17.180Z,13.13
2023-04-21T06:30:16.718Z,13.48
2023-04-21T06:31:17.266Z,13.66
2023-04-21T06:32:17.070Z,13.34
2023-04-21T06:33:16.625Z,13.50
2023-04-21T06:34:17.346Z,13.55
2023-04-21T06:35:17.193Z,13.41
2023-04-21T06:36:18.040Z,13.32
2023-04-21T06:37:16.770Z,13.42
2023-04-21T06:38:16.332Z,13.56
2023-04-21T06:39:16.931Z,13.59
2023-04-21T06:40:16.559Z,13.59
2023-04-21T06:41:17.137Z,13.83
2023-04-21T06:42:17.014Z,13.41
2023-04-21T06:43:16.591Z,13.06
2023-04-21T06:44:17.269Z,13.20
2023-04-21T06:45:17.292Z,13.31
2023-04-21T06:46:16.860Z,13.15
2023-04-21T06:47:16.443Z,13.28
2023-04-21T06:48:16.342Z,13.27
2023-04-21T06:49:17.175Z,12.83
2023-04-21T06:50:17.272Z,12.73
2023-04-21T06:51:16.847Z,12.94
2023-04-21T06:52:18.183Z,12.92
2023-04-21T06:53:16.583Z,12.99
2023-04-21T06:54:17.151Z,12.92
2023-04-21T06:55:16.757Z,13.03
2023-04-21T06:56:16.346Z,13.06
2023-04-21T06:57:16.963Z,13.10
2023-04-21T06:58:16.716Z,12.73
2023-04-21T06:59:16.994Z,12.53
2023-04-21T07:00:16.972Z,12.69
2023-04-21T07:01:16.543Z,12.76
2023-04-21T07:02:16.636Z,12.72
2023-04-21T07:03:17.438Z,12.82
2023-04-21T07:04:17.366Z,13.21
2023-04-21T07:05:17.076Z,13.07
2023-04-21T07:06:16.609Z,13.50
2023-04-21T07:07:17.214Z,13.82
2023-04-21T07:08:16.757Z,14.08
2023-04-21T07:09:17.450Z,13.94
2023-04-21T07:10:16.481Z,14.24
2023-04-21T07:11:17.022Z,14.63
2023-04-21T07:12:17.055Z,15.35
2023-04-21T07:13:16.625Z,15.49
2023-04-21T07:14:17.188Z,14.83
2023-04-21T07:15:16.733Z,14.82
2023-04-21T07:16:17.326Z,15.02
2023-04-21T07:17:16.939Z,15.05
2023-04-21T07:18:16.526Z,14.42
2023-04-21T07:19:17.258Z,14.88
2023-04-21T07:20:16.465Z,15.11
2023-04-21T07:21:17.022Z,15.17
2023-04-21T07:22:16.325Z,15.07
2023-04-21T07:23:16.881Z,15.04
2023-04-21T07:24:16.434Z,14.80
2023-04-21T07:25:17.072Z,14.83
2023-04-21T07:26:16.656Z,15.08
2023-04-21T07:27:17.219Z,14.82
2023-04-21T07:28:16.756Z,14.55
2023-04-21T07:29:16.328Z,14.63
2023-04-21T07:30:17.065Z,14.12
2023-04-21T07:31:16.664Z,13.59
2023-04-21T07:32:17.167Z,13.72
2023-04-21T07:33:16.715Z,13.92
2023-04-21T07:34:17.285Z,14.51
2023-04-21T07:35:16.880Z,15.02
2023-04-21T07:36:16.520Z,15.23
2023-04-21T07:37:17.120Z,15.49
2023-04-21T07:38:16.677Z,15.64
2023-04-21T07:39:17.641Z,15.66
2023-04-21T07:40:16.714Z,15.66
2023-04-21T07:41:17.275Z,16.21
2023-04-21T07:42:17.080Z,16.26
2023-04-21T07:43:16.666Z,16.88
2023-04-21T07:44:17.265Z,17.69
2023-04-21T07:45:16.896Z,17.69
2023-04-21T07:46:16.471Z,17.36
2023-04-21T07:47:17.072Z,16.00
2023-04-21T07:48:16.682Z,15.42
2023-04-21T07:49:17.739Z,15.92
2023-04-21T07:50:16.803Z,16.21
2023-04-21T07:51:16.366Z,16.59
2023-04-21T07:52:17.144Z,16.60
2023-04-21T07:53:16.693Z,17.01
2023-04-21T07:54:17.251Z,17.52
2023-04-21T07:55:16.828Z,17.32
2023-04-21T07:56:16.403Z,15.95
2023-04-21T07:57:16.986Z,16.14
2023-04-21T07:58:16.560Z,16.66
2023-04-21T07:59:17.263Z,17.18
2023-04-21T08:00:17.270Z,17.70
2023-04-21T08:01:16.887Z,17.66
2023-04-21T08:02:17.077Z,16.62
2023-04-21T08:03:17.160Z,16.52
2023-04-21T08:04:17.136Z,17.21
2023-04-21T08:05:16.510Z,17.66
2023-04-21T08:06:16.601Z,17.85
2023-04-21T08:07:16.939Z,16.74
2023-04-21T08:08:16.501Z,16.90
2023-04-21T08:09:17.210Z,17.05
2023-04-21T08:10:17.191Z,16.47
2023-04-21T08:11:16.795Z,16.66
2023-04-21T08:12:16.724Z,17.32
2023-04-21T08:13:17.323Z,17.91
2023-04-21T08:14:17.007Z,18.01
2023-04-21T08:15:17.243Z,18.34
2023-04-21T08:16:16.867Z,18.39
2023-04-21T08:17:16.537Z,18.42
2023-04-21T08:18:17.852Z,17.89
2023-04-21T08:19:16.523Z,18.43
2023-04-21T08:20:16.316Z,18.12
2023-04-21T08:21:16.912Z,18.79
2023-04-21T08:22:16.470Z,18.61
2023-04-21T08:23:17.044Z,16.88
2023-04-21T08:24:16.689Z,16.83
2023-04-21T08:25:16.383Z,17.87
2023-04-21T08:26:16.944Z,18.86
2023-04-21T08:27:16.504Z,19.30
2023-04-21T08:28:17.079Z,19.60
2023-04-21T08:29:16.663Z,19.48
2023-04-21T08:30:17.265Z,18.12
2023-04-21T08:31:16.917Z,18.56
2023-04-21T08:32:17.257Z,18.91
2023-04-21T08:33:16.892Z,19.30
2023-04-21T08:34:16.608Z,19.09
2023-04-21T08:35:17.159Z,19.26
2023-04-21T08:36:26.370Z,19.41
2023-04-21T08:37:16.583Z,19.37
2023-04-21T08:38:17.203Z,18.94
2023-04-21T08:39:16.876Z,18.12
2023-04-21T08:40:16.814Z,17.91
2023-04-21T08:41:16.389Z,18.34
2023-04-21T08:42:17.173Z,18.54
2023-04-21T08:43:16.718Z,18.95
2023-04-21T08:44:17.450Z,19.16
2023-04-21T08:45:16.363Z,19.09
2023-04-21T08:46:16.978Z,18.53
2023-04-21T08:47:16.725Z,18.29
2023-04-21T08:48:17.283Z,19.01
2023-04-21T08:49:16.865Z,18.56
2023-04-21T08:50:16.555Z,18.95
2023-04-21T08:51:17.145Z,19.62
2023-04-21T08:52:17.120Z,19.89
2023-04-21T08:53:16.671Z,19.75
2023-04-21T08:54:17.282Z,19.69
2023-04-21T08:55:16.841Z,19.39
2023-04-21T08:56:16.388Z,18.19
2023-04-21T08:57:17.002Z,18.72
2023-04-21T08:58:16.562Z,19.48
2023-04-21T08:59:17.151Z,19.16
2023-04-21T09:00:16.983Z,19.14
2023-04-21T09:01:16.577Z,19.78
2023-04-21T09:02:17.159Z,19.61
2023-04-21T09:03:23.565Z,20.05
2023-04-21T09:04:17.163Z,20.76
2023-04-21T09:05:16.559Z,20.71
2023-04-21T09:06:16.791Z,20.02
2023-04-21T09:07:16.502Z,19.43
2023-04-21T09:08:17.093Z,19.92
2023-04-21T09:09:16.757Z,19.75
2023-04-21T09:10:16.752Z,20.15
2023-04-21T09:11:17.337Z,20.47
2023-04-21T09:12:17.137Z,20.03
2023-04-21T09:13:16.687Z,19.99
2023-04-21T09:14:17.263Z,20.47
2023-04-21T09:15:16.817Z,20.68
2023-04-21T09:16:16.446Z,21.14
2023-04-21T09:17:17.160Z,21.05
2023-04-21T09:18:16.789Z,21.27
2023-04-21T09:19:16.382Z,21.69
2023-04-21T09:20:17.115Z,21.16
2023-04-21T09:21:16.769Z,20.75
2023-04-21T09:22:17.081Z,20.71
2023-04-21T09:23:16.634Z,19.50
2023-04-21T09:24:17.215Z,19.95
2023-04-21T09:25:16.768Z,19.44
2023-04-21T09:26:16.365Z,20.02
2023-04-21T09:27:16.961Z,20.55
2023-04-21T09:28:16.587Z,20.92
2023-04-21T09:29:17.484Z,20.88
2023-04-21T09:30:16.463Z,20.46
2023-04-21T09:31:17.132Z,20.54
2023-04-21T09:32:16.758Z,20.83
2023-04-21T09:33:27.767Z,20.83
2023-04-21T09:34:16.480Z,20.43
2023-04-21T09:35:17.027Z,19.50
2023-04-21T09:36:16.623Z,20.33
2023-04-21T09:37:18.897Z,20.79
2023-04-21T09:38:16.720Z,20.27
2023-04-21T09:40:16.778Z,21.72
2023-04-21T09:41:16.339Z,22.06
2023-04-21T09:42:17.318Z,21.72
2023-04-21T09:43:16.879Z,21.43
2023-04-21T09:44:16.454Z,22.15
2023-04-21T09:45:32.732Z,21.78
2023-04-21T09:46:16.421Z,22.09
2023-04-21T09:47:17.031Z,21.95
2023-04-21T09:48:16.599Z,20.99
2023-04-21T09:49:17.163Z,21.71
2023-04-21T09:50:19.001Z,22.54
2023-04-21T09:52:19.267Z,23.55
2023-04-21T09:53:16.487Z,22.97
2023-04-21T09:54:28.065Z,21.21
2023-04-21T09:55:16.802Z,19.19
2023-04-21T09:56:16.358Z,18.58
2023-04-21T09:57:16.949Z,18.95
2023-04-21T09:58:16.509Z,19.84
2023-04-21T09:59:17.040Z,19.67
2023-04-21T10:00:16.611Z,20.62
2023-04-21T10:01:17.356Z,21.61
2023-04-21T10:02:16.752Z,21.53
2023-04-21T10:03:16.831Z,22.05
2023-04-21T10:04:16.847Z,22.52
2023-04-21T10:05:17.244Z,21.99
2023-04-21T10:06:16.930Z,22.45
2023-04-21T10:07:16.486Z,21.41
2023-04-21T10:08:17.134Z,21.38
2023-04-21T10:09:16.816Z,19.61
2023-04-21T10:10:16.375Z,20.13
2023-04-21T10:11:16.926Z,20.19
2023-04-21T10:12:16.653Z,20.01
2023-04-21T10:13:17.220Z,18.58
2023-04-21T10:14:16.821Z,18.91
2023-04-21T10:15:16.574Z,19.65
2023-04-21T10:16:17.177Z,19.74
2023-04-21T10:17:18.018Z,19.39
2023-04-21T10:18:16.881Z,19.06
2023-04-21T10:19:16.458Z,19.85
2023-04-21T10:20:17.226Z,19.88
2023-04-21T10:21:16.816Z,19.31
2023-04-21T10:22:17.134Z,18.32
2023-04-21T10:23:16.684Z,18.78
2023-04-21T10:24:17.433Z,18.42
2023-04-21T10:25:16.444Z,18.89
2023-04-21T10:26:16.994Z,19.01
2023-04-21T10:27:16.518Z,19.23
2023-04-21T10:28:17.124Z,19.05
2023-04-21T10:29:16.788Z,19.54
2023-04-21T10:30:16.505Z,19.53
2023-04-21T10:31:17.143Z,19.23
2023-04-21T10:32:16.961Z,19.64
2023-04-21T10:33:16.615Z,20.03
2023-04-21T10:34:17.157Z,20.10
2023-04-21T10:35:16.780Z,20.37
2023-04-21T10:36:16.357Z,20.51
2023-04-21T10:37:17.038Z,19.79
2023-04-21T10:38:16.745Z,20.01
2023-04-21T10:39:17.375Z,20.62
2023-04-21T10:40:17.219Z,20.62
2023-04-21T10:41:16.798Z,20.59
2023-04-21T10:42:16.497Z,21.27
2023-04-21T10:43:17.109Z,21.41
2023-04-21T10:44:16.763Z,20.99
2023-04-21T10:45:16.337Z,20.48
2023-04-21T10:46:16.877Z,20.31
2023-04-21T10:47:16.552Z,20.51
2023-04-21T10:48:17.167Z,20.21
2023-04-21T10:49:16.712Z,20.26
2023-04-21T10:50:17.241Z,20.92
2023-04-21T10:51:16.806Z,21.40
2023-04-21T10:52:16.611Z,22.10
2023-04-21T10:53:17.173Z,22.35
2023-04-21T10:54:16.772Z,21.61
2023-04-21T10:55:16.693Z,22.13
2023-04-21T10:56:17.304Z,21.62
2023-04-21T10:57:16.867Z,20.91
2023-04-21T10:58:16.464Z,22.10
2023-04-21T10:59:17.020Z,21.48
2023-04-21T11:00:16.605Z,21.26
2023-04-21T11:01:17.226Z,20.16
2023-04-21T11:02:17.395Z,20.74
2023-04-21T11:03:16.564Z,21.21
2023-04-21T11:04:16.747Z,19.78
2023-04-21T11:05:16.675Z,19.86
2023-04-21T11:06:17.240Z,19.72
2023-04-21T11:07:16.830Z,20.15
2023-04-21T11:08:16.376Z,20.15
2023-04-21T11:09:16.970Z,20.54
2023-04-21T11:10:16.562Z,20.68
2023-04-21T11:11:17.105Z,20.62
2023-04-21T11:12:16.674Z,20.34
2023-04-21T11:13:17.192Z,20.15
2023-04-21T11:14:16.906Z,20.91
2023-04-21T11:15:16.697Z,21.03
2023-04-21T11:16:16.390Z,20.93
2023-04-21T11:17:16.994Z,20.67
2023-04-21T11:18:16.580Z,20.89
2023-04-21T11:19:17.153Z,20.24
2023-04-21T11:20:16.751Z,20.52
2023-04-21T11:21:16.349Z,20.40
2023-04-21T11:22:16.415Z,20.85
2023-04-21T11:23:16.981Z,21.03
2023-04-21T11:24:16.511Z,20.91
2023-04-21T11:25:17.101Z,21.10
2023-04-21T11:26:16.642Z,21.09
2023-04-21T11:27:17.225Z,20.78
2023-04-21T11:28:16.802Z,19.75
2023-04-21T11:29:16.382Z,19.78
2023-04-21T11:30:16.937Z,20.15
2023-04-21T11:31:16.507Z,20.01
2023-04-21T11:32:17.161Z,20.13
2023-04-21T11:33:16.793Z,20.61
2023-04-21T11:34:16.493Z,20.81
2023-04-21T11:35:17.097Z,20.98
2023-04-21T11:36:16.636Z,20.31
2023-04-21T11:37:17.168Z,19.96
2023-04-21T11:38:16.745Z,19.75
2023-04-21T11:39:18.570Z,19.76
2023-04-21T11:40:16.436Z,19.41
2023-04-21T11:41:17.001Z,19.50
2023-04-21T11:42:16.404Z,20.09
2023-04-21T11:43:16.985Z,20.03
2023-04-21T11:44:16.543Z,19.79
2023-04-21T11:45:17.945Z,20.01
2023-04-21T11:46:16.611Z,19.98
2023-04-21T11:47:17.262Z,19.82
2023-04-21T11:48:16.870Z,19.78
2023-04-21T11:49:16.411Z,19.65
2023-04-21T11:50:16.959Z,19.36
2023-04-21T11:51:16.497Z,19.33
2023-04-21T11:52:17.178Z,19.12
2023-04-21T11:53:16.773Z,19.05
2023-04-21T11:54:16.327Z,19.12
2023-04-21T11:55:16.877Z,19.09
2023-04-21T11:56:16.419Z,19.09
2023-04-21T11:57:16.975Z,18.72
2023-04-21T11:58:16.574Z,18.88
2023-04-21T11:59:17.145Z,18.91
2023-04-21T12:00:16.702Z,18.82
2023-04-21T12:01:17.298Z,18.50
2023-04-21T12:02:16.982Z,18.44
2023-04-21T12:03:16.797Z,18.43
2023-04-21T12:04:16.876Z,18.46
2023-04-21T12:05:16.809Z,18.40
2023-04-21T12:06:16.551Z,18.39
2023-04-21T12:07:17.329Z,18.29
2023-04-21T12:08:16.888Z,18.51
2023-04-21T12:09:16.461Z,18.50
2023-04-21T12:10:17.025Z,18.50
2023-04-21T12:11:16.569Z,18.54
2023-04-21T12:12:16.418Z,18.54
2023-04-21T12:13:18.145Z,18.51
2023-04-21T12:14:16.801Z,18.44
2023-04-21T12:15:16.359Z,18.44
2023-04-21T12:16:17.007Z,18.39
2023-04-21T12:17:16.663Z,18.40
2023-04-21T12:18:17.202Z,18.32
2023-04-21T12:19:16.774Z,18.17
2023-04-21T12:20:16.336Z,18.29
2023-04-21T12:21:16.934Z,18.29
2023-04-21T12:22:16.597Z,18.25
2023-04-21T12:23:17.142Z,18.37
2023-04-21T12:24:16.698Z,18.39
2023-04-21T12:25:17.276Z,18.40
2023-04-21T12:26:16.827Z,18.47
2023-04-21T12:27:16.435Z,18.75
2023-04-21T12:28:17.059Z,18.75
2023-04-21T12:29:16.591Z,18.74
2023-04-21T12:30:17.188Z,18.60
2023-04-21T12:31:16.813Z,18.67
2023-04-21T12:32:17.212Z,18.58
2023-04-21T12:33:17.230Z,18.60
2023-04-21T12:34:16.967Z,18.63
2023-04-21T12:35:16.656Z,18.50
2023-04-21T12:36:17.207Z,18.37
2023-04-21T12:37:16.729Z,18.34
2023-04-21T12:38:17.299Z,18.40
2023-04-21T12:39:16.865Z,18.42
2023-04-21T12:40:16.408Z,18.51
2023-04-21T12:41:16.985Z,18.58
2023-04-21T12:42:16.540Z,18.68
2023-04-21T12:43:17.128Z,18.63
2023-04-21T12:44:16.677Z,18.74
2023-04-21T12:45:17.255Z,18.91
2023-04-21T12:46:16.829Z,18.88
2023-04-21T12:47:16.513Z,18.91
2023-04-21T12:48:17.162Z,18.91
2023-04-21T12:49:16.864Z,18.77
2023-04-21T12:50:16.449Z,18.82
2023-04-21T12:51:17.043Z,18.81
2023-04-21T12:52:17.182Z,18.81
2023-04-21T12:53:16.734Z,18.74
2023-04-21T12:54:16.440Z,18.74
2023-04-21T12:55:17.025Z,18.70
2023-04-21T12:56:16.705Z,18.85
2023-04-21T12:57:17.308Z,18.88
2023-04-21T12:58:16.884Z,18.79
2023-04-21T12:59:16.428Z,18.78
2023-04-21T13:00:17.008Z,18.81
2023-04-21T13:01:16.586Z,18.85
2023-04-21T13:02:17.177Z,18.89
2023-04-21T13:03:16.962Z,18.85
2023-04-21T13:04:17.250Z,19.02
2023-04-21T13:05:16.511Z,19.06
2023-04-21T13:06:17.125Z,19.09